sensor_id;sensor_type;location;lat;lon;timestamp;temperature;humidity
35531;DHT22;21637;53.352;-6.356;2024-01-10T00:01:34;5.00;99.90
35531;DHT22;21637;53.352;-6.356;2024-01-10T00:04:00;5.00;99.90
35531;DHT22;21637;53.352;-6.356;2024-01-10T00:06:26;5.00;99.90
35531;DHT22;21637;53.352;-6.356;2024-01-10T00:08:52;5.00;99.90
35531;DHT22;21637;53.352;-6.356;2024-01-10T00:11:18;4.90;99.90
35531;DHT22;21637;53.352;-6.356;2024-01-10T00:13:43;5.00;99.90
35531;DHT22;21637;53.352;-6.356;2024-01-10T00:16:12;4.90;99.90
35531;DHT22;21637;53.352;-6.356;2024-01-10T00:18:39;4.90;99.90
35531;DHT22;21637;53.352;-6.356;2024-01-10T00:21:06;4.90;99.90
35531;DHT22;21637;53.352;-6.356;2024-01-10T00:23:32;4.90;99.90
35531;DHT22;21637;53.352;-6.356;2024-01-10T00:25:57;4.90;99.90
35531;DHT22;21637;53.352;-6.356;2024-01-10T00:28:23;4.90;99.90
35531;DHT22;21637;53.352;-6.356;2024-01-10T00:30:50;4.90;99.90
35531;DHT22;21637;53.352;-6.356;2024-01-10T00:33:15;4.80;99.90
35531;DHT22;21637;53.352;-6.356;2024-01-10T00:35:41;4.90;99.90
35531;DHT22;21637;53.352;-6.356;2024-01-10T00:38:07;4.80;99.90
35531;DHT22;21637;53.352;-6.356;2024-01-10T00:40:33;4.80;99.90
35531;DHT22;21637;53.352;-6.356;2024-01-10T00:42:58;4.80;99.90
35531;DHT22;21637;53.352;-6.356;2024-01-10T00:45:24;4.80;99.90
35531;DHT22;21637;53.352;-6.356;2024-01-10T00:47:50;4.80;99.90
35531;DHT22;21637;53.352;-6.356;2024-01-10T00:50:16;4.80;99.90
35531;DHT22;21637;53.352;-6.356;2024-01-10T00:52:43;4.80;99.90
35531;DHT22;21637;53.352;-6.356;2024-01-10T00:55:09;4.80;99.90
35531;DHT22;21637;53.352;-6.356;2024-01-10T00:57:34;4.80;99.90
35531;DHT22;21637;53.352;-6.356;2024-01-10T01:00:00;4.80;99.90
35531;DHT22;21637;53.352;-6.356;2024-01-10T01:02:27;4.80;99.90
35531;DHT22;21637;53.352;-6.356;2024-01-10T01:04:52;4.80;99.90
35531;DHT22;21637;53.352;-6.356;2024-01-10T01:07:18;4.80;99.90
35531;DHT22;21637;53.352;-6.356;2024-01-10T01:09:44;4.90;99.90
35531;DHT22;21637;53.352;-6.356;2024-01-10T01:12:09;4.90;99.90
35531;DHT22;21637;53.352;-6.356;2024-01-10T01:14:35;4.80;99.90
35531;DHT22;21637;53.352;-6.356;2024-01-10T01:17:01;4.80;99.90
35531;DHT22;21637;53.352;-6.356;2024-01-10T01:19:27;4.90;99.90
35531;DHT22;21637;53.352;-6.356;2024-01-10T01:21:52;4.90;99.90
35531;DHT22;21637;53.352;-6.356;2024-01-10T01:24:18;4.80;99.90
35531;DHT22;21637;53.352;-6.356;2024-01-10T01:26:44;4.80;99.90
35531;DHT22;21637;53.352;-6.356;2024-01-10T01:29:09;4.80;99.90
35531;DHT22;21637;53.352;-6.356;2024-01-10T01:31:35;4.80;99.90
35531;DHT22;21637;53.352;-6.356;2024-01-10T01:34:01;4.70;99.90
35531;DHT22;21637;53.352;-6.356;2024-01-10T01:36:26;4.80;99.90
35531;DHT22;21637;53.352;-6.356;2024-01-10T01:38:52;4.70;99.90
35531;DHT22;21637;53.352;-6.356;2024-01-10T01:41:19;4.70;99.90
35531;DHT22;21637;53.352;-6.356;2024-01-10T01:43:45;4.70;99.90
35531;DHT22;21637;53.352;-6.356;2024-01-10T01:46:11;4.70;99.90
35531;DHT22;21637;53.352;-6.356;2024-01-10T01:48:37;4.80;99.90
35531;DHT22;21637;53.352;-6.356;2024-01-10T01:51:07;4.80;99.90
35531;DHT22;21637;53.352;-6.356;2024-01-10T01:53:34;4.70;99.90
35531;DHT22;21637;53.352;-6.356;2024-01-10T01:56:10;4.70;99.90
35531;DHT22;21637;53.352;-6.356;2024-01-10T01:58:38;4.70;99.90
35531;DHT22;21637;53.352;-6.356;2024-01-10T02:01:04;4.80;99.90
35531;DHT22;21637;53.352;-6.356;2024-01-10T02:03:33;4.80;99.90
35531;DHT22;21637;53.352;-6.356;2024-01-10T02:06:00;4.80;99.90
35531;DHT22;21637;53.352;-6.356;2024-01-10T02:08:32;4.80;99.90
35531;DHT22;21637;53.352;-6.356;2024-01-10T02:10:58;4.80;99.90
35531;DHT22;21637;53.352;-6.356;2024-01-10T02:13:24;4.80;99.90
35531;DHT22;21637;53.352;-6.356;2024-01-10T02:15:51;4.90;99.90
35531;DHT22;21637;53.352;-6.356;2024-01-10T02:18:17;4.90;99.90
35531;DHT22;21637;53.352;-6.356;2024-01-10T02:20:44;4.80;99.90
35531;DHT22;21637;53.352;-6.356;2024-01-10T02:23:13;4.80;99.90
35531;DHT22;21637;53.352;-6.356;2024-01-10T02:25:40;4.80;99.90
35531;DHT22;21637;53.352;-6.356;2024-01-10T02:28:06;4.70;99.90
35531;DHT22;21637;53.352;-6.356;2024-01-10T02:30:33;4.70;99.90
35531;DHT22;21637;53.352;-6.356;2024-01-10T02:32:58;4.70;99.90
35531;DHT22;21637;53.352;-6.356;2024-01-10T02:35:24;4.60;99.90
35531;DHT22;21637;53.352;-6.356;2024-01-10T02:37:50;4.60;99.90
35531;DHT22;21637;53.352;-6.356;2024-01-10T02:40:17;4.70;99.90
35531;DHT22;21637;53.352;-6.356;2024-01-10T02:42:43;4.60;99.90
35531;DHT22;21637;53.352;-6.356;2024-01-10T02:45:09;4.60;99.90
35531;DHT22;21637;53.352;-6.356;2024-01-10T02:47:35;4.70;99.90
35531;DHT22;21637;53.352;-6.356;2024-01-10T02:50:03;4.70;99.90
35531;DHT22;21637;53.352;-6.356;2024-01-10T02:52:28;4.70;99.90
35531;DHT22;21637;53.352;-6.356;2024-01-10T02:54:54;4.70;99.90
35531;DHT22;21637;53.352;-6.356;2024-01-10T02:57:20;4.60;99.90
35531;DHT22;21637;53.352;-6.356;2024-01-10T02:59:45;4.60;99.90
35531;DHT22;21637;53.352;-6.356;2024-01-10T03:02:11;4.70;99.90
35531;DHT22;21637;53.352;-6.356;2024-01-10T03:04:37;4.60;99.90
35531;DHT22;21637;53.352;-6.356;2024-01-10T03:07:03;4.70;99.90
35531;DHT22;21637;53.352;-6.356;2024-01-10T03:09:29;4.70;99.90
35531;DHT22;21637;53.352;-6.356;2024-01-10T03:11:54;4.60;99.90
35531;DHT22;21637;53.352;-6.356;2024-01-10T03:14:20;4.70;99.90
35531;DHT22;21637;53.352;-6.356;2024-01-10T03:16:46;4.60;99.90
35531;DHT22;21637;53.352;-6.356;2024-01-10T03:19:12;4.60;99.90
35531;DHT22;21637;53.352;-6.356;2024-01-10T03:21:37;4.60;99.90
35531;DHT22;21637;53.352;-6.356;2024-01-10T03:24:03;4.60;99.90
35531;DHT22;21637;53.352;-6.356;2024-01-10T03:26:29;4.70;99.90
35531;DHT22;21637;53.352;-6.356;2024-01-10T03:28:58;4.70;99.90
35531;DHT22;21637;53.352;-6.356;2024-01-10T03:31:24;4.70;99.90
35531;DHT22;21637;53.352;-6.356;2024-01-10T03:33:49;4.70;99.90
35531;DHT22;21637;53.352;-6.356;2024-01-10T03:36:17;4.70;99.90
35531;DHT22;21637;53.352;-6.356;2024-01-10T03:38:43;4.70;99.90
35531;DHT22;21637;53.352;-6.356;2024-01-10T03:41:19;4.70;99.90
35531;DHT22;21637;53.352;-6.356;2024-01-10T03:43:45;4.80;99.90
35531;DHT22;21637;53.352;-6.356;2024-01-10T03:46:12;4.70;99.90
35531;DHT22;21637;53.352;-6.356;2024-01-10T03:48:38;4.70;99.90
35531;DHT22;21637;53.352;-6.356;2024-01-10T03:51:13;4.70;99.90
35531;DHT22;21637;53.352;-6.356;2024-01-10T03:53:39;4.70;99.90
35531;DHT22;21637;53.352;-6.356;2024-01-10T03:56:05;4.80;99.90
35531;DHT22;21637;53.352;-6.356;2024-01-10T03:58:31;4.80;99.90
35531;DHT22;21637;53.352;-6.356;2024-01-10T04:00:56;4.80;99.90
35531;DHT22;21637;53.352;-6.356;2024-01-10T04:03:22;4.80;99.90
35531;DHT22;21637;53.352;-6.356;2024-01-10T04:05:48;4.80;99.90
35531;DHT22;21637;53.352;-6.356;2024-01-10T04:08:15;4.80;99.90
35531;DHT22;21637;53.352;-6.356;2024-01-10T04:10:41;4.80;99.90
35531;DHT22;21637;53.352;-6.356;2024-01-10T04:13:06;4.80;99.90
35531;DHT22;21637;53.352;-6.356;2024-01-10T04:15:32;4.90;99.90
35531;DHT22;21637;53.352;-6.356;2024-01-10T04:17:58;4.80;99.90
35531;DHT22;21637;53.352;-6.356;2024-01-10T04:20:24;4.80;99.90
35531;DHT22;21637;53.352;-6.356;2024-01-10T04:22:49;4.90;99.90
35531;DHT22;21637;53.352;-6.356;2024-01-10T04:25:15;4.80;99.90
35531;DHT22;21637;53.352;-6.356;2024-01-10T04:27:40;4.90;99.90
35531;DHT22;21637;53.352;-6.356;2024-01-10T04:30:07;4.90;99.90
35531;DHT22;21637;53.352;-6.356;2024-01-10T04:32:33;4.90;99.90
35531;DHT22;21637;53.352;-6.356;2024-01-10T04:35:00;4.90;99.90
35531;DHT22;21637;53.352;-6.356;2024-01-10T04:37:26;4.90;99.90
35531;DHT22;21637;53.352;-6.356;2024-01-10T04:39:52;5.00;99.90
35531;DHT22;21637;53.352;-6.356;2024-01-10T04:42:17;5.00;99.90
35531;DHT22;21637;53.352;-6.356;2024-01-10T04:44:43;5.00;99.90
35531;DHT22;21637;53.352;-6.356;2024-01-10T04:47:09;4.90;99.90
35531;DHT22;21637;53.352;-6.356;2024-01-10T04:49:35;5.00;99.90
35531;DHT22;21637;53.352;-6.356;2024-01-10T04:52:01;4.90;99.90
35531;DHT22;21637;53.352;-6.356;2024-01-10T04:54:26;4.90;99.90
35531;DHT22;21637;53.352;-6.356;2024-01-10T04:56:52;5.00;99.90
35531;DHT22;21637;53.352;-6.356;2024-01-10T04:59:18;5.00;99.90
35531;DHT22;21637;53.352;-6.356;2024-01-10T05:01:44;5.00;99.90
35531;DHT22;21637;53.352;-6.356;2024-01-10T05:04:09;5.00;99.90
35531;DHT22;21637;53.352;-6.356;2024-01-10T05:06:35;5.00;99.90
35531;DHT22;21637;53.352;-6.356;2024-01-10T05:09:01;5.00;99.90
35531;DHT22;21637;53.352;-6.356;2024-01-10T05:11:26;5.00;99.90
35531;DHT22;21637;53.352;-6.356;2024-01-10T05:13:52;5.00;99.90
35531;DHT22;21637;53.352;-6.356;2024-01-10T05:16:18;5.00;99.90
35531;DHT22;21637;53.352;-6.356;2024-01-10T05:18:44;4.90;99.90
35531;DHT22;21637;53.352;-6.356;2024-01-10T05:21:09;5.00;99.90
35531;DHT22;21637;53.352;-6.356;2024-01-10T05:23:35;4.90;99.90
35531;DHT22;21637;53.352;-6.356;2024-01-10T05:26:02;5.00;99.90
35531;DHT22;21637;53.352;-6.356;2024-01-10T05:28:28;4.90;99.90
35531;DHT22;21637;53.352;-6.356;2024-01-10T05:30:53;5.00;99.90
35531;DHT22;21637;53.352;-6.356;2024-01-10T05:33:19;5.00;99.90
35531;DHT22;21637;53.352;-6.356;2024-01-10T05:35:45;5.00;99.90
35531;DHT22;21637;53.352;-6.356;2024-01-10T05:38:11;5.00;99.90
35531;DHT22;21637;53.352;-6.356;2024-01-10T05:40:37;5.00;99.90
35531;DHT22;21637;53.352;-6.356;2024-01-10T05:43:03;5.00;99.90
35531;DHT22;21637;53.352;-6.356;2024-01-10T05:45:29;5.10;99.90
35531;DHT22;21637;53.352;-6.356;2024-01-10T05:47:55;5.10;99.90
35531;DHT22;21637;53.352;-6.356;2024-01-10T05:50:21;5.10;99.90
35531;DHT22;21637;53.352;-6.356;2024-01-10T05:52:50;5.10;99.90
35531;DHT22;21637;53.352;-6.356;2024-01-10T05:55:15;5.10;99.90
35531;DHT22;21637;53.352;-6.356;2024-01-10T05:57:41;5.20;99.90
35531;DHT22;21637;53.352;-6.356;2024-01-10T06:00:08;5.20;99.90
35531;DHT22;21637;53.352;-6.356;2024-01-10T06:02:36;5.30;99.90
35531;DHT22;21637;53.352;-6.356;2024-01-10T06:05:06;5.30;99.90
35531;DHT22;21637;53.352;-6.356;2024-01-10T06:07:32;5.30;99.90
35531;DHT22;21637;53.352;-6.356;2024-01-10T06:09:57;5.30;99.90
35531;DHT22;21637;53.352;-6.356;2024-01-10T06:12:23;5.30;99.90
35531;DHT22;21637;53.352;-6.356;2024-01-10T06:14:49;5.30;99.90
35531;DHT22;21637;53.352;-6.356;2024-01-10T06:17:15;5.30;99.90
35531;DHT22;21637;53.352;-6.356;2024-01-10T06:19:41;5.30;99.90
35531;DHT22;21637;53.352;-6.356;2024-01-10T06:22:07;5.30;99.90
35531;DHT22;21637;53.352;-6.356;2024-01-10T06:24:32;5.30;99.90
35531;DHT22;21637;53.352;-6.356;2024-01-10T06:26:58;5.40;99.90
35531;DHT22;21637;53.352;-6.356;2024-01-10T06:29:24;5.40;99.90
35531;DHT22;21637;53.352;-6.356;2024-01-10T06:31:50;5.40;99.90
35531;DHT22;21637;53.352;-6.356;2024-01-10T06:34:16;5.40;99.90
35531;DHT22;21637;53.352;-6.356;2024-01-10T06:36:42;5.40;99.90
35531;DHT22;21637;53.352;-6.356;2024-01-10T06:39:09;5.40;99.90
35531;DHT22;21637;53.352;-6.356;2024-01-10T06:41:38;5.30;99.90
35531;DHT22;21637;53.352;-6.356;2024-01-10T06:44:04;5.30;99.90
35531;DHT22;21637;53.352;-6.356;2024-01-10T06:46:30;5.30;99.90
35531;DHT22;21637;53.352;-6.356;2024-01-10T06:48:57;5.40;99.90
35531;DHT22;21637;53.352;-6.356;2024-01-10T06:51:23;5.50;99.90
35531;DHT22;21637;53.352;-6.356;2024-01-10T06:53:48;5.50;99.90
35531;DHT22;21637;53.352;-6.356;2024-01-10T06:56:14;5.50;99.90
35531;DHT22;21637;53.352;-6.356;2024-01-10T06:58:40;5.50;99.90
35531;DHT22;21637;53.352;-6.356;2024-01-10T07:01:11;5.50;99.90
35531;DHT22;21637;53.352;-6.356;2024-01-10T07:03:39;5.60;99.90
35531;DHT22;21637;53.352;-6.356;2024-01-10T07:06:05;5.60;99.90
35531;DHT22;21637;53.352;-6.356;2024-01-10T07:08:30;5.60;99.90
35531;DHT22;21637;53.352;-6.356;2024-01-10T07:10:56;5.60;99.90
35531;DHT22;21637;53.352;-6.356;2024-01-10T07:13:22;5.60;99.90
35531;DHT22;21637;53.352;-6.356;2024-01-10T07:15:48;5.70;99.90
35531;DHT22;21637;53.352;-6.356;2024-01-10T07:18:16;5.60;99.90
35531;DHT22;21637;53.352;-6.356;2024-01-10T07:20:42;5.70;99.90
35531;DHT22;21637;53.352;-6.356;2024-01-10T07:23:08;5.70;99.90
35531;DHT22;21637;53.352;-6.356;2024-01-10T07:25:33;5.70;99.90
35531;DHT22;21637;53.352;-6.356;2024-01-10T07:27:59;5.70;99.90
35531;DHT22;21637;53.352;-6.356;2024-01-10T07:30:26;5.70;99.90
35531;DHT22;21637;53.352;-6.356;2024-01-10T07:32:52;5.70;99.90
35531;DHT22;21637;53.352;-6.356;2024-01-10T07:35:17;5.70;99.90
35531;DHT22;21637;53.352;-6.356;2024-01-10T07:37:43;5.80;99.90
35531;DHT22;21637;53.352;-6.356;2024-01-10T07:40:09;5.70;99.90
35531;DHT22;21637;53.352;-6.356;2024-01-10T07:42:36;5.70;99.90
35531;DHT22;21637;53.352;-6.356;2024-01-10T07:45:03;5.80;99.90
35531;DHT22;21637;53.352;-6.356;2024-01-10T07:47:34;5.80;99.90
35531;DHT22;21637;53.352;-6.356;2024-01-10T07:50:11;5.80;99.90
35531;DHT22;21637;53.352;-6.356;2024-01-10T07:52:40;5.80;99.90
35531;DHT22;21637;53.352;-6.356;2024-01-10T07:55:06;5.80;99.90
35531;DHT22;21637;53.352;-6.356;2024-01-10T07:57:33;5.80;99.90
35531;DHT22;21637;53.352;-6.356;2024-01-10T08:00:03;5.80;99.90
35531;DHT22;21637;53.352;-6.356;2024-01-10T08:02:29;5.80;99.90
35531;DHT22;21637;53.352;-6.356;2024-01-10T08:05:02;5.80;99.90
35531;DHT22;21637;53.352;-6.356;2024-01-10T08:07:34;5.80;99.90
35531;DHT22;21637;53.352;-6.356;2024-01-10T08:10:07;5.80;99.90
35531;DHT22;21637;53.352;-6.356;2024-01-10T08:12:34;5.80;99.90
35531;DHT22;21637;53.352;-6.356;2024-01-10T08:14:59;5.90;99.90
35531;DHT22;21637;53.352;-6.356;2024-01-10T08:17:26;5.90;99.90
35531;DHT22;21637;53.352;-6.356;2024-01-10T08:19:51;5.90;99.90
35531;DHT22;21637;53.352;-6.356;2024-01-10T08:22:20;5.90;99.90
35531;DHT22;21637;53.352;-6.356;2024-01-10T08:24:46;5.90;99.90
35531;DHT22;21637;53.352;-6.356;2024-01-10T08:27:12;5.90;99.90
35531;DHT22;21637;53.352;-6.356;2024-01-10T08:29:38;6.00;99.90
35531;DHT22;21637;53.352;-6.356;2024-01-10T08:32:04;6.00;99.90
35531;DHT22;21637;53.352;-6.356;2024-01-10T08:34:30;5.90;99.90
35531;DHT22;21637;53.352;-6.356;2024-01-10T08:36:56;6.00;99.90
35531;DHT22;21637;53.352;-6.356;2024-01-10T08:39:22;6.00;99.90
35531;DHT22;21637;53.352;-6.356;2024-01-10T08:41:50;6.00;99.90
35531;DHT22;21637;53.352;-6.356;2024-01-10T08:44:15;6.00;99.90
35531;DHT22;21637;53.352;-6.356;2024-01-10T08:46:41;6.00;99.90
35531;DHT22;21637;53.352;-6.356;2024-01-10T08:49:07;5.90;99.90
35531;DHT22;21637;53.352;-6.356;2024-01-10T08:51:32;6.00;99.90
35531;DHT22;21637;53.352;-6.356;2024-01-10T08:53:59;6.00;99.90
35531;DHT22;21637;53.352;-6.356;2024-01-10T08:56:25;6.00;99.90
35531;DHT22;21637;53.352;-6.356;2024-01-10T08:58:51;6.00;99.90
35531;DHT22;21637;53.352;-6.356;2024-01-10T09:01:18;6.00;99.90
35531;DHT22;21637;53.352;-6.356;2024-01-10T09:03:44;6.00;99.90
35531;DHT22;21637;53.352;-6.356;2024-01-10T09:06:10;6.10;99.90
35531;DHT22;21637;53.352;-6.356;2024-01-10T09:08:36;6.10;99.90
35531;DHT22;21637;53.352;-6.356;2024-01-10T09:11:02;6.10;99.90
35531;DHT22;21637;53.352;-6.356;2024-01-10T09:13:28;6.10;99.90
35531;DHT22;21637;53.352;-6.356;2024-01-10T09:15:54;6.10;99.90
35531;DHT22;21637;53.352;-6.356;2024-01-10T09:18:19;6.20;99.90
35531;DHT22;21637;53.352;-6.356;2024-01-10T09:20:45;6.10;99.90
35531;DHT22;21637;53.352;-6.356;2024-01-10T09:23:11;6.10;99.90
35531;DHT22;21637;53.352;-6.356;2024-01-10T09:25:37;6.10;99.90
35531;DHT22;21637;53.352;-6.356;2024-01-10T09:28:04;6.20;99.90
35531;DHT22;21637;53.352;-6.356;2024-01-10T09:30:30;6.20;99.90
35531;DHT22;21637;53.352;-6.356;2024-01-10T09:32:56;6.20;99.90
35531;DHT22;21637;53.352;-6.356;2024-01-10T09:35:22;6.20;99.90
35531;DHT22;21637;53.352;-6.356;2024-01-10T09:37:48;6.20;99.90
35531;DHT22;21637;53.352;-6.356;2024-01-10T09:40:15;6.30;99.90
35531;DHT22;21637;53.352;-6.356;2024-01-10T09:42:43;6.30;99.90
35531;DHT22;21637;53.352;-6.356;2024-01-10T09:45:10;6.30;99.90
35531;DHT22;21637;53.352;-6.356;2024-01-10T09:47:39;6.40;99.90
35531;DHT22;21637;53.352;-6.356;2024-01-10T09:50:08;6.40;99.90
35531;DHT22;21637;53.352;-6.356;2024-01-10T09:52:41;6.40;99.90
35531;DHT22;21637;53.352;-6.356;2024-01-10T09:55:12;6.40;99.90
35531;DHT22;21637;53.352;-6.356;2024-01-10T09:57:40;6.40;99.90
35531;DHT22;21637;53.352;-6.356;2024-01-10T10:00:06;6.50;99.90
35531;DHT22;21637;53.352;-6.356;2024-01-10T10:02:38;6.40;99.90
35531;DHT22;21637;53.352;-6.356;2024-01-10T10:05:09;6.50;99.90
35531;DHT22;21637;53.352;-6.356;2024-01-10T10:07:48;6.50;99.90
35531;DHT22;21637;53.352;-6.356;2024-01-10T10:10:15;6.50;99.90
35531;DHT22;21637;53.352;-6.356;2024-01-10T10:12:47;6.60;99.90
35531;DHT22;21637;53.352;-6.356;2024-01-10T10:15:15;6.50;99.90
35531;DHT22;21637;53.352;-6.356;2024-01-10T10:17:43;6.60;99.90
35531;DHT22;21637;53.352;-6.356;2024-01-10T10:20:27;6.60;99.90
35531;DHT22;21637;53.352;-6.356;2024-01-10T10:23:07;6.60;99.90
35531;DHT22;21637;53.352;-6.356;2024-01-10T10:25:37;6.60;99.90
35531;DHT22;21637;53.352;-6.356;2024-01-10T10:28:07;6.60;99.90
35531;DHT22;21637;53.352;-6.356;2024-01-10T10:30:33;6.70;99.90
35531;DHT22;21637;53.352;-6.356;2024-01-10T10:33:00;6.70;99.90
35531;DHT22;21637;53.352;-6.356;2024-01-10T10:35:26;6.80;99.90
35531;DHT22;21637;53.352;-6.356;2024-01-10T10:37:53;6.70;99.90
35531;DHT22;21637;53.352;-6.356;2024-01-10T10:40:20;6.70;99.90
35531;DHT22;21637;53.352;-6.356;2024-01-10T10:42:47;6.70;99.90
35531;DHT22;21637;53.352;-6.356;2024-01-10T10:45:17;6.80;99.90
35531;DHT22;21637;53.352;-6.356;2024-01-10T10:47:45;6.80;99.90
35531;DHT22;21637;53.352;-6.356;2024-01-10T10:50:22;6.70;99.90
35531;DHT22;21637;53.352;-6.356;2024-01-10T10:52:49;6.60;99.90
35531;DHT22;21637;53.352;-6.356;2024-01-10T10:55:16;6.70;99.90
35531;DHT22;21637;53.352;-6.356;2024-01-10T10:57:47;6.60;99.90
35531;DHT22;21637;53.352;-6.356;2024-01-10T11:00:14;6.60;99.90
35531;DHT22;21637;53.352;-6.356;2024-01-10T11:02:43;6.60;99.90
35531;DHT22;21637;53.352;-6.356;2024-01-10T11:05:10;6.60;99.90
35531;DHT22;21637;53.352;-6.356;2024-01-10T11:07:41;6.60;99.90
35531;DHT22;21637;53.352;-6.356;2024-01-10T11:10:35;6.60;99.90
35531;DHT22;21637;53.352;-6.356;2024-01-10T11:16:18;6.60;99.90
35531;DHT22;21637;53.352;-6.356;2024-01-10T11:22:00;6.50;99.90
35531;DHT22;21637;53.352;-6.356;2024-01-10T11:24:30;6.60;99.90
35531;DHT22;21637;53.352;-6.356;2024-01-10T11:27:13;6.50;99.90
35531;DHT22;21637;53.352;-6.356;2024-01-10T11:29:40;6.50;99.90
35531;DHT22;21637;53.352;-6.356;2024-01-10T11:32:16;6.50;99.90
35531;DHT22;21637;53.352;-6.356;2024-01-10T11:34:59;6.50;99.90
35531;DHT22;21637;53.352;-6.356;2024-01-10T11:37:45;6.50;99.90
35531;DHT22;21637;53.352;-6.356;2024-01-10T11:40:14;6.70;99.90
35531;DHT22;21637;53.352;-6.356;2024-01-10T11:42:42;6.80;99.90
35531;DHT22;21637;53.352;-6.356;2024-01-10T11:45:08;6.90;99.90
35531;DHT22;21637;53.352;-6.356;2024-01-10T11:47:37;6.90;99.90
35531;DHT22;21637;53.352;-6.356;2024-01-10T11:50:03;6.80;99.90
35531;DHT22;21637;53.352;-6.356;2024-01-10T11:52:33;6.80;99.90
35531;DHT22;21637;53.352;-6.356;2024-01-10T11:54:59;6.80;99.90
35531;DHT22;21637;53.352;-6.356;2024-01-10T11:57:27;6.70;99.90
35531;DHT22;21637;53.352;-6.356;2024-01-10T11:59:54;6.70;99.90
35531;DHT22;21637;53.352;-6.356;2024-01-10T12:02:22;6.70;99.90
35531;DHT22;21637;53.352;-6.356;2024-01-10T12:04:49;6.70;99.90
35531;DHT22;21637;53.352;-6.356;2024-01-10T12:07:17;6.80;99.90
35531;DHT22;21637;53.352;-6.356;2024-01-10T12:09:43;6.80;99.90
35531;DHT22;21637;53.352;-6.356;2024-01-10T12:12:09;6.80;99.90
35531;DHT22;21637;53.352;-6.356;2024-01-10T12:14:38;6.80;99.90
35531;DHT22;21637;53.352;-6.356;2024-01-10T12:17:05;6.90;99.90
35531;DHT22;21637;53.352;-6.356;2024-01-10T12:19:34;6.90;99.90
35531;DHT22;21637;53.352;-6.356;2024-01-10T12:22:00;7.00;99.90
35531;DHT22;21637;53.352;-6.356;2024-01-10T12:24:27;7.00;99.90
35531;DHT22;21637;53.352;-6.356;2024-01-10T12:26:56;7.00;99.90
35531;DHT22;21637;53.352;-6.356;2024-01-10T12:29:22;7.00;99.90
35531;DHT22;21637;53.352;-6.356;2024-01-10T12:31:50;7.00;99.90
35531;DHT22;21637;53.352;-6.356;2024-01-10T12:34:16;7.00;99.90
35531;DHT22;21637;53.352;-6.356;2024-01-10T12:36:42;7.00;99.90
35531;DHT22;21637;53.352;-6.356;2024-01-10T12:39:12;7.10;99.90
35531;DHT22;21637;53.352;-6.356;2024-01-10T12:41:40;7.10;99.90
35531;DHT22;21637;53.352;-6.356;2024-01-10T12:44:06;7.20;99.90
35531;DHT22;21637;53.352;-6.356;2024-01-10T12:46:32;7.20;99.90
35531;DHT22;21637;53.352;-6.356;2024-01-10T12:49:06;7.20;99.90
35531;DHT22;21637;53.352;-6.356;2024-01-10T12:51:33;7.20;99.90
35531;DHT22;21637;53.352;-6.356;2024-01-10T12:54:02;7.20;99.90
35531;DHT22;21637;53.352;-6.356;2024-01-10T12:56:30;7.20;99.90
35531;DHT22;21637;53.352;-6.356;2024-01-10T12:58:56;7.20;99.90
35531;DHT22;21637;53.352;-6.356;2024-01-10T13:01:23;7.20;99.90
35531;DHT22;21637;53.352;-6.356;2024-01-10T13:03:49;7.20;99.90
35531;DHT22;21637;53.352;-6.356;2024-01-10T13:06:15;7.20;99.90
35531;DHT22;21637;53.352;-6.356;2024-01-10T13:08:41;7.20;99.90
35531;DHT22;21637;53.352;-6.356;2024-01-10T13:11:08;7.10;99.90
35531;DHT22;21637;53.352;-6.356;2024-01-10T13:13:38;7.10;99.90
35531;DHT22;21637;53.352;-6.356;2024-01-10T13:16:04;7.10;99.90
35531;DHT22;21637;53.352;-6.356;2024-01-10T13:18:30;7.10;99.90
35531;DHT22;21637;53.352;-6.356;2024-01-10T13:20:56;7.10;99.90
35531;DHT22;21637;53.352;-6.356;2024-01-10T13:23:22;7.10;99.90
35531;DHT22;21637;53.352;-6.356;2024-01-10T13:25:49;7.20;99.90
35531;DHT22;21637;53.352;-6.356;2024-01-10T13:28:15;7.10;99.90
35531;DHT22;21637;53.352;-6.356;2024-01-10T13:30:41;7.10;99.90
35531;DHT22;21637;53.352;-6.356;2024-01-10T13:33:09;7.10;99.90
35531;DHT22;21637;53.352;-6.356;2024-01-10T13:35:35;7.10;99.90
35531;DHT22;21637;53.352;-6.356;2024-01-10T13:38:01;7.10;99.90
35531;DHT22;21637;53.352;-6.356;2024-01-10T13:40:27;7.20;99.90
35531;DHT22;21637;53.352;-6.356;2024-01-10T13:42:53;7.20;99.90
35531;DHT22;21637;53.352;-6.356;2024-01-10T13:45:19;7.20;99.90
35531;DHT22;21637;53.352;-6.356;2024-01-10T13:47:46;7.20;99.90
35531;DHT22;21637;53.352;-6.356;2024-01-10T13:50:12;7.20;99.90
35531;DHT22;21637;53.352;-6.356;2024-01-10T13:52:38;7.20;99.90
35531;DHT22;21637;53.352;-6.356;2024-01-10T13:55:04;7.20;99.90
35531;DHT22;21637;53.352;-6.356;2024-01-10T13:57:31;7.20;99.90
35531;DHT22;21637;53.352;-6.356;2024-01-10T14:00:00;7.20;99.90
35531;DHT22;21637;53.352;-6.356;2024-01-10T14:02:26;7.10;99.90
35531;DHT22;21637;53.352;-6.356;2024-01-10T14:04:52;7.10;99.90
35531;DHT22;21637;53.352;-6.356;2024-01-10T14:07:20;7.00;99.90
35531;DHT22;21637;53.352;-6.356;2024-01-10T14:09:45;7.00;99.90
35531;DHT22;21637;53.352;-6.356;2024-01-10T14:12:12;6.90;99.90
35531;DHT22;21637;53.352;-6.356;2024-01-10T14:14:38;6.80;99.90
35531;DHT22;21637;53.352;-6.356;2024-01-10T14:17:03;6.80;99.90
35531;DHT22;21637;53.352;-6.356;2024-01-10T14:19:29;6.70;99.90
35531;DHT22;21637;53.352;-6.356;2024-01-10T14:21:55;6.70;99.90
35531;DHT22;21637;53.352;-6.356;2024-01-10T14:24:21;6.70;99.90
35531;DHT22;21637;53.352;-6.356;2024-01-10T14:26:47;6.70;99.90
35531;DHT22;21637;53.352;-6.356;2024-01-10T14:29:12;6.70;99.90
35531;DHT22;21637;53.352;-6.356;2024-01-10T14:31:38;6.70;99.90
35531;DHT22;21637;53.352;-6.356;2024-01-10T14:34:05;6.70;99.90
35531;DHT22;21637;53.352;-6.356;2024-01-10T14:36:31;6.80;99.90
35531;DHT22;21637;53.352;-6.356;2024-01-10T14:38:57;6.80;99.90
35531;DHT22;21637;53.352;-6.356;2024-01-10T14:41:23;6.80;99.90
35531;DHT22;21637;53.352;-6.356;2024-01-10T14:43:48;6.80;99.90
35531;DHT22;21637;53.352;-6.356;2024-01-10T14:46:15;6.80;99.90
35531;DHT22;21637;53.352;-6.356;2024-01-10T14:48:41;6.80;99.90
35531;DHT22;21637;53.352;-6.356;2024-01-10T14:51:06;6.80;99.90
35531;DHT22;21637;53.352;-6.356;2024-01-10T14:53:33;6.80;99.90
35531;DHT22;21637;53.352;-6.356;2024-01-10T14:56:00;6.80;99.90
35531;DHT22;21637;53.352;-6.356;2024-01-10T14:58:26;6.80;99.90
35531;DHT22;21637;53.352;-6.356;2024-01-10T15:00:52;6.80;99.90
35531;DHT22;21637;53.352;-6.356;2024-01-10T15:03:18;6.80;99.90
35531;DHT22;21637;53.352;-6.356;2024-01-10T15:05:43;6.80;99.90
35531;DHT22;21637;53.352;-6.356;2024-01-10T15:08:10;6.80;99.90
35531;DHT22;21637;53.352;-6.356;2024-01-10T15:10:37;6.80;99.90
35531;DHT22;21637;53.352;-6.356;2024-01-10T15:13:09;6.80;99.90
35531;DHT22;21637;53.352;-6.356;2024-01-10T15:15:37;6.80;99.90
35531;DHT22;21637;53.352;-6.356;2024-01-10T15:18:04;6.80;99.90
35531;DHT22;21637;53.352;-6.356;2024-01-10T15:20:30;6.80;99.90
35531;DHT22;21637;53.352;-6.356;2024-01-10T15:22:56;6.70;99.90
35531;DHT22;21637;53.352;-6.356;2024-01-10T15:25:23;6.80;99.90
35531;DHT22;21637;53.352;-6.356;2024-01-10T15:27:50;6.70;99.90
35531;DHT22;21637;53.352;-6.356;2024-01-10T15:30:16;6.70;99.90
35531;DHT22;21637;53.352;-6.356;2024-01-10T15:32:42;6.60;99.90
35531;DHT22;21637;53.352;-6.356;2024-01-10T15:35:08;6.60;99.90